sensor_id;sensor_type;location;lat;lon;timestamp;P1;durP1;ratioP1;P2;durP2;ratioP2
1593;SDS011;790;47.000;16.084;2024-03-23T00:55:58;5.27;;;4.77;;
1593;SDS011;790;47.000;16.084;2024-03-23T01:02:20;5.57;;;5.07;;
1593;SDS011;790;47.000;16.084;2024-03-23T01:13:28;5.73;;;5.03;;
1593;SDS011;790;47.000;16.084;2024-03-23T01:19:50;6.73;;;5.60;;
1593;SDS011;790;47.000;16.084;2024-03-23T01:26:12;6.70;;;5.40;;
1593;SDS011;790;47.000;16.084;2024-03-23T01:32:35;6.17;;;5.57;;
1593;SDS011;790;47.000;16.084;2024-03-23T01:38:57;5.37;;;4.87;;
1593;SDS011;790;47.000;16.084;2024-03-23T01:45:19;5.33;;;4.93;;
1593;SDS011;790;47.000;16.084;2024-03-23T01:51:43;5.47;;;5.07;;
1593;SDS011;790;47.000;16.084;2024-03-23T01:58:05;5.10;;;4.70;;
1593;SDS011;790;47.000;16.084;2024-03-23T02:04:28;4.90;;;4.60;;
1593;SDS011;790;47.000;16.084;2024-03-23T02:15:37;9.70;;;6.60;;
1593;SDS011;790;47.000;16.084;2024-03-23T02:22:00;7.97;;;6.77;;
1593;SDS011;790;47.000;16.084;2024-03-23T02:28:24;8.50;;;6.63;;
1593;SDS011;790;47.000;16.084;2024-03-23T02:34:46;9.40;;;8.30;;
1593;SDS011;790;47.000;16.084;2024-03-23T02:41:08;7.23;;;6.57;;
1593;SDS011;790;47.000;16.084;2024-03-23T02:47:32;7.37;;;6.70;;
1593;SDS011;790;47.000;16.084;2024-03-23T02:53:53;7.37;;;6.70;;
1593;SDS011;790;47.000;16.084;2024-03-23T03:00:16;8.20;;;7.40;;
1593;SDS011;790;47.000;16.084;2024-03-23T03:06:40;6.60;;;6.00;;
1593;SDS011;790;47.000;16.084;2024-03-23T03:17:46;7.13;;;6.53;;
1593;SDS011;790;47.000;16.084;2024-03-23T03:24:10;7.30;;;6.60;;
1593;SDS011;790;47.000;16.084;2024-03-23T03:30:32;6.57;;;6.07;;
1593;SDS011;790;47.000;16.084;2024-03-23T03:36:54;6.60;;;6.00;;
1593;SDS011;790;47.000;16.084;2024-03-23T03:43:18;6.30;;;5.70;;
1593;SDS011;790;47.000;16.084;2024-03-23T03:49:40;5.37;;;4.97;;
1593;SDS011;790;47.000;16.084;2024-03-23T03:56:03;5.80;;;5.20;;
1593;SDS011;790;47.000;16.084;2024-03-23T04:02:28;5.30;;;4.87;;
1593;SDS011;790;47.000;16.084;2024-03-23T04:08:50;6.07;;;5.40;;
1593;SDS011;790;47.000;16.084;2024-03-23T04:19:57;5.70;;;5.20;;
1593;SDS011;790;47.000;16.084;2024-03-23T04:26:20;5.57;;;5.17;;
1593;SDS011;790;47.000;16.084;2024-03-23T04:32:42;6.00;;;5.50;;
1593;SDS011;790;47.000;16.084;2024-03-23T04:39:06;6.07;;;5.57;;
1593;SDS011;790;47.000;16.084;2024-03-23T04:45:28;5.93;;;5.33;;
1593;SDS011;790;47.000;16.084;2024-03-23T04:51:50;6.10;;;5.50;;
1593;SDS011;790;47.000;16.084;2024-03-23T04:58:14;6.57;;;5.40;;
1593;SDS011;790;47.000;16.084;2024-03-23T05:04:36;6.47;;;5.50;;
1593;SDS011;790;47.000;16.084;2024-03-23T05:11:00;5.83;;;5.30;;
1593;SDS011;790;47.000;16.084;2024-03-23T05:22:11;7.30;;;6.33;;
1593;SDS011;790;47.000;16.084;2024-03-23T05:28:33;6.90;;;6.30;;
1593;SDS011;790;47.000;16.084;2024-03-23T05:34:55;6.63;;;5.97;;
1593;SDS011;790;47.000;16.084;2024-03-23T05:41:19;6.07;;;5.50;;
1593;SDS011;790;47.000;16.084;2024-03-23T05:47:43;6.93;;;6.00;;
1593;SDS011;790;47.000;16.084;2024-03-23T05:54:06;6.40;;;5.87;;
1593;SDS011;790;47.000;16.084;2024-03-23T06:00:30;7.30;;;6.60;;
1593;SDS011;790;47.000;16.084;2024-03-23T06:06:52;12.60;;;9.63;;
1593;SDS011;790;47.000;16.084;2024-03-23T06:13:14;9.03;;;7.17;;
1593;SDS011;790;47.000;16.084;2024-03-23T06:24:23;9.60;;;8.40;;
1593;SDS011;790;47.000;16.084;2024-03-23T06:30:46;7.93;;;7.33;;
1593;SDS011;790;47.000;16.084;2024-03-23T06:37:09;8.13;;;7.10;;
1593;SDS011;790;47.000;16.084;2024-03-23T06:43:33;7.30;;;6.70;;
1593;SDS011;790;47.000;16.084;2024-03-23T06:50:15;9.37;;;7.43;;
1593;SDS011;790;47.000;16.084;2024-03-23T06:56:38;14.10;;;12.60;;
1593;SDS011;790;47.000;16.084;2024-03-23T07:03:12;11.63;;;9.73;;
1593;SDS011;790;47.000;16.084;2024-03-23T07:09:34;8.70;;;7.80;;
1593;SDS011;790;47.000;16.084;2024-03-23T07:15:57;8.57;;;6.93;;
1593;SDS011;790;47.000;16.084;2024-03-23T07:26:55;7.70;;;6.87;;
1593;SDS011;790;47.000;16.084;2024-03-23T07:33:17;8.63;;;7.10;;
1593;SDS011;790;47.000;16.084;2024-03-23T07:39:39;7.23;;;6.53;;
1593;SDS011;790;47.000;16.084;2024-03-23T07:46:03;11.77;;;7.37;;
1593;SDS011;790;47.000;16.084;2024-03-23T07:52:27;7.93;;;7.03;;
1593;SDS011;790;47.000;16.084;2024-03-23T07:58:50;9.20;;;8.40;;
1593;SDS011;790;47.000;16.084;2024-03-23T08:05:14;7.93;;;7.20;;
1593;SDS011;790;47.000;16.084;2024-03-23T08:11:36;9.00;;;7.97;;
1593;SDS011;790;47.000;16.084;2024-03-23T08:17:59;8.50;;;7.53;;
1593;SDS011;790;47.000;16.084;2024-03-23T08:28:48;7.47;;;6.17;;
1593;SDS011;790;47.000;16.084;2024-03-23T08:35:11;7.60;;;6.60;;
1593;SDS011;790;47.000;16.084;2024-03-23T08:41:33;7.30;;;6.57;;
1593;SDS011;790;47.000;16.084;2024-03-23T08:47:57;8.50;;;7.60;;
1593;SDS011;790;47.000;16.084;2024-03-23T08:54:19;8.40;;;5.80;;
1593;SDS011;790;47.000;16.084;2024-03-23T09:00:42;6.50;;;5.77;;
1593;SDS011;790;47.000;16.084;2024-03-23T09:07:06;5.90;;;5.40;;
1593;SDS011;790;47.000;16.084;2024-03-23T09:13:27;11.27;;;6.67;;
1593;SDS011;790;47.000;16.084;2024-03-23T09:19:49;6.50;;;5.23;;
1593;SDS011;790;47.000;16.084;2024-03-23T09:30:37;6.43;;;5.50;;
1593;SDS011;790;47.000;16.084;2024-03-23T09:37:01;5.70;;;5.20;;
1593;SDS011;790;47.000;16.084;2024-03-23T09:43:23;6.87;;;4.43;;
1593;SDS011;790;47.000;16.084;2024-03-23T09:49:47;4.73;;;4.33;;
1593;SDS011;790;47.000;16.084;2024-03-23T09:56:09;6.47;;;5.03;;
1593;SDS011;790;47.000;16.084;2024-03-23T10:02:31;4.53;;;4.10;;
1593;SDS011;790;47.000;16.084;2024-03-23T10:08:56;4.83;;;4.43;;
1593;SDS011;790;47.000;16.084;2024-03-23T10:15:19;5.17;;;4.63;;
1593;SDS011;790;47.000;16.084;2024-03-23T10:21:51;5.57;;;5.07;;
1593;SDS011;790;47.000;16.084;2024-03-23T10:32:49;4.80;;;4.30;;
1593;SDS011;790;47.000;16.084;2024-03-23T10:39:11;5.63;;;4.57;;
1593;SDS011;790;47.000;16.084;2024-03-23T10:45:36;4.90;;;4.40;;
1593;SDS011;790;47.000;16.084;2024-03-23T10:52:00;4.95;;;4.35;;
1593;SDS011;790;47.000;16.084;2024-03-23T10:58:31;4.93;;;4.53;;
1593;SDS011;790;47.000;16.084;2024-03-23T11:11:51;4.75;;;4.35;;
1593;SDS011;790;47.000;16.084;2024-03-23T11:18:12;5.03;;;4.63;;
1593;SDS011;790;47.000;16.084;2024-03-23T11:24:41;4.97;;;4.43;;
1593;SDS011;790;47.000;16.084;2024-03-23T11:36:06;4.30;;;4.00;;
1593;SDS011;790;47.000;16.084;2024-03-23T11:42:28;4.20;;;3.90;;
1593;SDS011;790;47.000;16.084;2024-03-23T11:48:51;5.28;;;4.00;;
1593;SDS011;790;47.000;16.084;2024-03-23T11:55:15;4.00;;;3.70;;
1593;SDS011;790;47.000;16.084;2024-03-23T12:01:37;4.32;;;3.45;;
1593;SDS011;790;47.000;16.084;2024-03-23T12:14:39;3.65;;;3.45;;
1593;SDS011;790;47.000;16.084;2024-03-23T12:21:03;4.25;;;3.80;;
1593;SDS011;790;47.000;16.084;2024-03-23T12:27:25;4.68;;;4.35;;
1593;SDS011;790;47.000;16.084;2024-03-23T12:38:44;5.22;;;4.65;;
1593;SDS011;790;47.000;16.084;2024-03-23T12:45:07;4.75;;;4.35;;
1593;SDS011;790;47.000;16.084;2024-03-23T12:51:29;5.28;;;4.80;;
1593;SDS011;790;47.000;16.084;2024-03-23T12:57:53;6.68;;;6.07;;
1593;SDS011;790;47.000;16.084;2024-03-23T13:04:16;12.55;;;9.57;;
1593;SDS011;790;47.000;16.084;2024-03-23T13:10:38;7.72;;;5.80;;
1593;SDS011;790;47.000;16.084;2024-03-23T13:17:02;4.40;;;4.00;;
1593;SDS011;790;47.000;16.084;2024-03-23T13:23:25;4.95;;;4.55;;
1593;SDS011;790;47.000;16.084;2024-03-23T13:29:48;7.45;;;4.70;;
1593;SDS011;790;47.000;16.084;2024-03-23T13:41:05;4.57;;;3.67;;
1593;SDS011;790;47.000;16.084;2024-03-23T13:47:28;3.95;;;3.60;;
1593;SDS011;790;47.000;16.084;2024-03-23T13:53:50;12.40;;;10.45;;
1593;SDS011;790;47.000;16.084;2024-03-23T14:00:14;3.60;;;3.40;;
1593;SDS011;790;47.000;16.084;2024-03-23T14:06:37;3.83;;;3.63;;
1593;SDS011;790;47.000;16.084;2024-03-23T14:13:02;3.30;;;2.92;;
1593;SDS011;790;47.000;16.084;2024-03-23T14:19:26;3.65;;;3.10;;
1593;SDS011;790;47.000;16.084;2024-03-23T14:25:47;3.00;;;2.80;;
1593;SDS011;790;47.000;16.084;2024-03-23T14:32:11;5.28;;;2.90;;
1593;SDS011;790;47.000;16.084;2024-03-23T14:43:31;3.30;;;2.85;;
1593;SDS011;790;47.000;16.084;2024-03-23T14:49:53;4.07;;;3.67;;
1593;SDS011;790;47.000;16.084;2024-03-23T14:56:16;3.67;;;3.22;;
1593;SDS011;790;47.000;16.084;2024-03-23T15:02:40;3.80;;;2.95;;
1593;SDS011;790;47.000;16.084;2024-03-23T15:09:01;4.35;;;3.88;;
1593;SDS011;790;47.000;16.084;2024-03-23T15:15:26;4.43;;;4.13;;
1593;SDS011;790;47.000;16.084;2024-03-23T15:21:51;3.53;;;3.22;;
1593;SDS011;790;47.000;16.084;2024-03-23T15:28:14;4.60;;;3.08;;
1593;SDS011;790;47.000;16.084;2024-03-23T15:34:36;3.38;;;3.10;;
1593;SDS011;790;47.000;16.084;2024-03-23T15:45:57;2.60;;;2.40;;
1593;SDS011;790;47.000;16.084;2024-03-23T15:52:20;4.85;;;2.97;;
1593;SDS011;790;47.000;16.084;2024-03-23T15:58:43;2.33;;;2.22;;
1593;SDS011;790;47.000;16.084;2024-03-23T16:05:07;6.80;;;3.05;;
1593;SDS011;790;47.000;16.084;2024-03-23T16:11:31;5.32;;;4.93;;
1593;SDS011;790;47.000;16.084;2024-03-23T16:17:54;2.58;;;2.30;;
1593;SDS011;790;47.000;16.084;2024-03-23T16:24:18;3.65;;;0.80;;
1593;SDS011;790;47.000;16.084;2024-03-23T16:30:40;2.87;;;0.53;;
1593;SDS011;790;47.000;16.084;2024-03-23T16:37:03;2.33;;;0.50;;
1593;SDS011;790;47.000;16.084;2024-03-23T16:48:22;0.87;;;0.33;;
1593;SDS011;790;47.000;16.084;2024-03-23T16:55:01;0.63;;;0.40;;
1593;SDS011;790;47.000;16.084;2024-03-23T17:01:46;0.40;;;0.40;;
1593;SDS011;790;47.000;16.084;2024-03-23T17:08:13;16.33;;;13.77;;
1593;SDS011;790;47.000;16.084;2024-03-23T17:14:37;0.73;;;0.50;;
1593;SDS011;790;47.000;16.084;2024-03-23T17:21:02;0.60;;;0.60;;
1593;SDS011;790;47.000;16.084;2024-03-23T17:27:27;0.93;;;0.63;;
1593;SDS011;790;47.000;16.084;2024-03-23T17:33:50;0.63;;;0.60;;
1593;SDS011;790;47.000;16.084;2024-03-23T17:40:13;1.00;;;0.90;;
1593;SDS011;790;47.000;16.084;2024-03-23T17:51:10;0.90;;;0.90;;
1593;SDS011;790;47.000;16.084;2024-03-23T17:57:33;0.87;;;0.87;;
1593;SDS011;790;47.000;16.084;2024-03-23T18:03:55;0.93;;;0.80;;
1593;SDS011;790;47.000;16.084;2024-03-23T18:10:18;1.23;;;1.00;;
1593;SDS011;790;47.000;16.084;2024-03-23T18:16:41;0.93;;;0.93;;
1593;SDS011;790;47.000;16.084;2024-03-23T18:23:04;0.90;;;0.90;;
1593;SDS011;790;47.000;16.084;2024-03-23T18:29:28;1.07;;;0.90;;
1593;SDS011;790;47.000;16.084;2024-03-23T18:35:51;1.10;;;1.10;;
1593;SDS011;790;47.000;16.084;2024-03-23T18:42:14;1.17;;;1.17;;
1593;SDS011;790;47.000;16.084;2024-03-23T18:53:02;1.03;;;0.93;;
1593;SDS011;790;47.000;16.084;2024-03-23T18:59:25;1.03;;;1.03;;
1593;SDS011;790;47.000;16.084;2024-03-23T19:05:51;4.57;;;3.80;;
1593;SDS011;790;47.000;16.084;2024-03-23T19:12:15;2.70;;;1.50;;
1593;SDS011;790;47.000;16.084;2024-03-23T19:18:38;1.10;;;1.00;;
1593;SDS011;790;47.000;16.084;2024-03-23T19:25:01;1.33;;;1.23;;
1593;SDS011;790;47.000;16.084;2024-03-23T19:31:24;1.03;;;1.03;;
1593;SDS011;790;47.000;16.084;2024-03-23T19:37:48;2.63;;;1.43;;
1593;SDS011;790;47.000;16.084;2024-03-23T19:44:10;2.00;;;1.30;;
1593;SDS011;790;47.000;16.084;2024-03-23T19:54:58;1.40;;;1.27;;
1593;SDS011;790;47.000;16.084;2024-03-23T20:01:21;1.97;;;1.40;;
1593;SDS011;790;47.000;16.084;2024-03-23T20:07:43;1.83;;;1.23;;
1593;SDS011;790;47.000;16.084;2024-03-23T20:14:07;1.10;;;1.10;;
1593;SDS011;790;47.000;16.084;2024-03-23T20:20:30;2.40;;;1.40;;
1593;SDS011;790;47.000;16.084;2024-03-23T20:26:53;1.20;;;1.20;;
1593;SDS011;790;47.000;16.084;2024-03-23T20:33:16;2.00;;;1.50;;
1593;SDS011;790;47.000;16.084;2024-03-23T20:39:38;1.63;;;1.23;;
1593;SDS011;790;47.000;16.084;2024-03-23T20:46:00;1.80;;;1.30;;
1593;SDS011;790;47.000;16.084;2024-03-23T20:56:48;2.20;;;2.00;;
1593;SDS011;790;47.000;16.084;2024-03-23T21:03:11;1.90;;;1.80;;
1593;SDS011;790;47.000;16.084;2024-03-23T21:09:33;1.20;;;1.17;;
1593;SDS011;790;47.000;16.084;2024-03-23T21:15:56;0.60;;;0.60;;
1593;SDS011;790;47.000;16.084;2024-03-23T21:22:21;1.00;;;1.00;;
1593;SDS011;790;47.000;16.084;2024-03-23T21:28:43;3.63;;;2.47;;
1593;SDS011;790;47.000;16.084;2024-03-23T21:35:06;1.00;;;1.00;;
1593;SDS011;790;47.000;16.084;2024-03-23T21:41:29;0.87;;;0.87;;
1593;SDS011;790;47.000;16.084;2024-03-23T21:47:52;1.30;;;1.30;;
1593;SDS011;790;47.000;16.084;2024-03-23T21:59:11;2.13;;;1.93;;
1593;SDS011;790;47.000;16.084;2024-03-23T22:05:34;1.87;;;1.70;;
1593;SDS011;790;47.000;16.084;2024-03-23T22:11:56;1.50;;;0.90;;
1593;SDS011;790;47.000;16.084;2024-03-23T22:18:19;2.70;;;1.00;;
1593;SDS011;790;47.000;16.084;2024-03-23T22:24:41;2.33;;;1.80;;
1593;SDS011;790;47.000;16.084;2024-03-23T22:31:03;1.00;;;1.00;;
1593;SDS011;790;47.000;16.084;2024-03-23T22:37:27;1.00;;;0.90;;
1593;SDS011;790;47.000;16.084;2024-03-23T22:43:50;1.23;;;1.00;;
1593;SDS011;790;47.000;16.084;2024-03-23T22:50:12;1.93;;;1.40;;
1593;SDS011;790;47.000;16.084;2024-03-23T23:01:21;1.67;;;1.17;;
1593;SDS011;790;47.000;16.084;2024-03-23T23:07:44;2.50;;;1.30;;
1593;SDS011;790;47.000;16.084;2024-03-23T23:14:06;1.30;;;1.23;;
1593;SDS011;790;47.000;16.084;2024-03-23T23:20:30;1.10;;;1.10;;
1593;SDS011;790;47.000;16.084;2024-03-23T23:26:53;1.80;;;0.90;;
1593;SDS011;790;47.000;16.084;2024-03-23T23:33:15;2.37;;;1.00;;
1593;SDS011;790;47.000;16.084;2024-03-23T23:39:38;1.00;;;0.90;;
1593;SDS011;790;47.000;16.084;2024-03-23T23:46:01;1.13;;;1.10;;
1593;SDS011;790;47.000;16.084;2024-03-23T23:52:23;1.67;;;1.30;;
